Bengall, Arkansas
Current Conditions -  °F | °C
As of 4:56 PM on Thursday 18 Dec 2014 (Local Time) from KM19 Reporting Station
Haze Haze  
Wind Chill: 37°   Ceiling: 1400
Heat Index: 41°   Visibility: 6mi
Dew Point: 38°   Wind: 6mph
Humidity: 89%   Direction: 40°NE
Pressure: 30.21"   Gusts: NA
Location:  35.5678°N, 91.2073°W
Report Text: KM19 182256Z AUTO 04005KT 6SM BR OVC014 05/03 A3021 RMK AO2 T00500033 RAB26E52 P0000 SLP232
Loading
Personal Weather Stations






























Interactive Weather Map New forecast layout! Learn more

10-Day Weather Forecast

Advertisements
Track Severe Weather on mobile